sensor_id;sensor_type;location;lat;lon;timestamp;P1;durP1;ratioP1;P2;durP2;ratioP2
31746;SDS011;18319;48.974;8.462;2022-10-31T00:02:26;7.38;;;2.65;;
31746;SDS011;18319;48.974;8.462;2022-10-31T00:04:53;4.57;;;2.03;;
31746;SDS011;18319;48.974;8.462;2022-10-31T00:07:19;4.78;;;2.95;;
31746;SDS011;18319;48.974;8.462;2022-10-31T00:09:47;6.43;;;2.20;;
31746;SDS011;18319;48.974;8.462;2022-10-31T00:12:14;3.58;;;2.58;;
31746;SDS011;18319;48.974;8.462;2022-10-31T00:14:41;5.40;;;2.05;;
31746;SDS011;18319;48.974;8.462;2022-10-31T00:17:08;6.18;;;2.75;;
31746;SDS011;18319;48.974;8.462;2022-10-31T00:19:34;4.72;;;2.33;;
31746;SDS011;18319;48.974;8.462;2022-10-31T00:22:01;3.63;;;2.17;;
31746;SDS011;18319;48.974;8.462;2022-10-31T00:24:28;3.60;;;2.65;;
31746;SDS011;18319;48.974;8.462;2022-10-31T00:26:56;3.85;;;2.15;;
31746;SDS011;18319;48.974;8.462;2022-10-31T00:29:23;6.43;;;2.17;;
31746;SDS011;18319;48.974;8.462;2022-10-31T00:31:49;2.88;;;2.42;;
31746;SDS011;18319;48.974;8.462;2022-10-31T00:34:17;2.30;;;2.00;;
31746;SDS011;18319;48.974;8.462;2022-10-31T00:36:45;7.63;;;3.40;;
31746;SDS011;18319;48.974;8.462;2022-10-31T00:39:11;3.42;;;2.08;;
31746;SDS011;18319;48.974;8.462;2022-10-31T00:41:38;6.50;;;2.20;;
31746;SDS011;18319;48.974;8.462;2022-10-31T00:44:06;3.13;;;2.20;;
31746;SDS011;18319;48.974;8.462;2022-10-31T00:46:33;5.82;;;1.70;;
31746;SDS011;18319;48.974;8.462;2022-10-31T00:49:00;4.63;;;2.20;;
31746;SDS011;18319;48.974;8.462;2022-10-31T00:51:27;8.07;;;2.05;;
31746;SDS011;18319;48.974;8.462;2022-10-31T00:53:53;6.05;;;3.03;;
31746;SDS011;18319;48.974;8.462;2022-10-31T00:56:20;3.00;;;2.20;;
31746;SDS011;18319;48.974;8.462;2022-10-31T00:58:47;3.22;;;2.85;;
31746;SDS011;18319;48.974;8.462;2022-10-31T01:01:15;3.88;;;1.98;;
31746;SDS011;18319;48.974;8.462;2022-10-31T01:03:42;3.03;;;2.35;;
31746;SDS011;18319;48.974;8.462;2022-10-31T01:06:10;4.90;;;2.13;;
31746;SDS011;18319;48.974;8.462;2022-10-31T01:08:38;3.55;;;1.67;;
31746;SDS011;18319;48.974;8.462;2022-10-31T01:11:06;3.95;;;2.15;;
31746;SDS011;18319;48.974;8.462;2022-10-31T01:13:34;4.40;;;1.75;;
31746;SDS011;18319;48.974;8.462;2022-10-31T01:16:01;2.63;;;1.92;;
31746;SDS011;18319;48.974;8.462;2022-10-31T01:18:32;4.38;;;2.35;;
31746;SDS011;18319;48.974;8.462;2022-10-31T01:21:00;5.35;;;2.10;;
31746;SDS011;18319;48.974;8.462;2022-10-31T01:23:27;11.45;;;2.58;;
31746;SDS011;18319;48.974;8.462;2022-10-31T01:25:58;3.65;;;1.83;;
31746;SDS011;18319;48.974;8.462;2022-10-31T01:28:25;3.42;;;1.98;;
31746;SDS011;18319;48.974;8.462;2022-10-31T01:30:52;4.30;;;2.40;;
31746;SDS011;18319;48.974;8.462;2022-10-31T01:33:19;3.83;;;2.10;;
31746;SDS011;18319;48.974;8.462;2022-10-31T01:35:47;2.28;;;2.03;;
31746;SDS011;18319;48.974;8.462;2022-10-31T01:38:14;3.03;;;2.20;;
31746;SDS011;18319;48.974;8.462;2022-10-31T01:40:41;4.13;;;2.28;;
31746;SDS011;18319;48.974;8.462;2022-10-31T01:43:09;4.38;;;2.10;;
31746;SDS011;18319;48.974;8.462;2022-10-31T01:45:38;4.40;;;2.53;;
31746;SDS011;18319;48.974;8.462;2022-10-31T01:48:06;4.07;;;2.22;;
31746;SDS011;18319;48.974;8.462;2022-10-31T01:50:35;5.53;;;1.95;;
31746;SDS011;18319;48.974;8.462;2022-10-31T01:53:06;2.47;;;2.28;;
31746;SDS011;18319;48.974;8.462;2022-10-31T01:55:35;5.63;;;2.05;;
31746;SDS011;18319;48.974;8.462;2022-10-31T01:58:05;10.20;;;2.80;;
31746;SDS011;18319;48.974;8.462;2022-10-31T02:00:33;6.20;;;2.45;;
31746;SDS011;18319;48.974;8.462;2022-10-31T02:03:00;2.13;;;1.80;;
31746;SDS011;18319;48.974;8.462;2022-10-31T02:05:28;2.63;;;2.08;;
31746;SDS011;18319;48.974;8.462;2022-10-31T02:07:57;3.88;;;2.40;;
31746;SDS011;18319;48.974;8.462;2022-10-31T02:10:26;6.60;;;2.65;;
31746;SDS011;18319;48.974;8.462;2022-10-31T02:12:54;2.97;;;1.98;;
31746;SDS011;18319;48.974;8.462;2022-10-31T02:15:24;4.88;;;2.13;;
31746;SDS011;18319;48.974;8.462;2022-10-31T02:17:51;5.10;;;2.30;;
31746;SDS011;18319;48.974;8.462;2022-10-31T02:20:18;2.42;;;2.22;;
31746;SDS011;18319;48.974;8.462;2022-10-31T02:23:03;3.78;;;1.83;;
31746;SDS011;18319;48.974;8.462;2022-10-31T02:25:46;4.53;;;2.22;;
31746;SDS011;18319;48.974;8.462;2022-10-31T02:28:22;4.60;;;1.98;;
31746;SDS011;18319;48.974;8.462;2022-10-31T02:31:05;4.25;;;2.40;;
31746;SDS011;18319;48.974;8.462;2022-10-31T02:33:35;5.45;;;2.30;;
31746;SDS011;18319;48.974;8.462;2022-10-31T02:36:10;5.10;;;1.98;;
31746;SDS011;18319;48.974;8.462;2022-10-31T02:38:41;5.03;;;2.45;;
31746;SDS011;18319;48.974;8.462;2022-10-31T02:41:18;5.45;;;2.40;;
31746;SDS011;18319;48.974;8.462;2022-10-31T02:43:49;4.07;;;2.40;;
31746;SDS011;18319;48.974;8.462;2022-10-31T02:46:27;4.20;;;2.15;;
31746;SDS011;18319;48.974;8.462;2022-10-31T02:48:59;2.08;;;1.98;;
31746;SDS011;18319;48.974;8.462;2022-10-31T02:51:32;3.92;;;2.30;;
31746;SDS011;18319;48.974;8.462;2022-10-31T02:53:59;6.07;;;2.55;;
31746;SDS011;18319;48.974;8.462;2022-10-31T02:56:25;3.65;;;2.58;;
31746;SDS011;18319;48.974;8.462;2022-10-31T02:58:53;5.55;;;2.50;;
31746;SDS011;18319;48.974;8.462;2022-10-31T03:01:36;8.27;;;2.38;;
31746;SDS011;18319;48.974;8.462;2022-10-31T03:04:22;4.70;;;2.42;;
31746;SDS011;18319;48.974;8.462;2022-10-31T03:07:08;5.70;;;2.53;;
31746;SDS011;18319;48.974;8.462;2022-10-31T03:09:42;4.45;;;2.20;;
31746;SDS011;18319;48.974;8.462;2022-10-31T03:12:11;4.03;;;2.03;;
31746;SDS011;18319;48.974;8.462;2022-10-31T03:14:43;2.92;;;2.03;;
31746;SDS011;18319;48.974;8.462;2022-10-31T03:17:20;8.02;;;2.50;;
31746;SDS011;18319;48.974;8.462;2022-10-31T03:19:52;4.57;;;2.45;;
31746;SDS011;18319;48.974;8.462;2022-10-31T03:22:24;6.20;;;2.55;;
31746;SDS011;18319;48.974;8.462;2022-10-31T03:24:53;6.82;;;2.28;;
31746;SDS011;18319;48.974;8.462;2022-10-31T03:27:22;6.95;;;2.90;;
31746;SDS011;18319;48.974;8.462;2022-10-31T03:29:52;3.58;;;2.92;;
31746;SDS011;18319;48.974;8.462;2022-10-31T03:32:24;5.18;;;2.35;;
31746;SDS011;18319;48.974;8.462;2022-10-31T03:34:55;2.63;;;1.90;;
31746;SDS011;18319;48.974;8.462;2022-10-31T03:37:25;7.18;;;2.63;;
31746;SDS011;18319;48.974;8.462;2022-10-31T03:39:55;3.38;;;2.30;;
31746;SDS011;18319;48.974;8.462;2022-10-31T03:42:26;6.38;;;2.25;;
31746;SDS011;18319;48.974;8.462;2022-10-31T03:44:57;3.55;;;2.30;;
31746;SDS011;18319;48.974;8.462;2022-10-31T03:47:29;4.10;;;3.13;;
31746;SDS011;18319;48.974;8.462;2022-10-31T03:49:57;3.25;;;2.05;;
31746;SDS011;18319;48.974;8.462;2022-10-31T03:52:24;5.10;;;2.25;;
31746;SDS011;18319;48.974;8.462;2022-10-31T03:54:54;2.53;;;1.83;;
31746;SDS011;18319;48.974;8.462;2022-10-31T03:57:24;3.22;;;2.33;;
31746;SDS011;18319;48.974;8.462;2022-10-31T03:59:56;4.95;;;2.10;;
31746;SDS011;18319;48.974;8.462;2022-10-31T04:02:28;3.05;;;2.20;;
31746;SDS011;18319;48.974;8.462;2022-10-31T04:04:59;3.78;;;2.72;;
31746;SDS011;18319;48.974;8.462;2022-10-31T04:07:28;10.15;;;2.30;;
31746;SDS011;18319;48.974;8.462;2022-10-31T04:09:59;2.33;;;1.85;;
31746;SDS011;18319;48.974;8.462;2022-10-31T04:12:28;6.22;;;2.45;;
31746;SDS011;18319;48.974;8.462;2022-10-31T04:14:56;4.07;;;2.25;;
31746;SDS011;18319;48.974;8.462;2022-10-31T04:17:24;7.43;;;2.90;;
31746;SDS011;18319;48.974;8.462;2022-10-31T04:19:59;4.35;;;2.20;;
31746;SDS011;18319;48.974;8.462;2022-10-31T04:22:26;4.63;;;2.03;;
31746;SDS011;18319;48.974;8.462;2022-10-31T04:24:53;8.93;;;2.60;;
31746;SDS011;18319;48.974;8.462;2022-10-31T04:27:20;3.97;;;2.05;;
31746;SDS011;18319;48.974;8.462;2022-10-31T04:29:46;3.53;;;2.20;;
31746;SDS011;18319;48.974;8.462;2022-10-31T04:32:13;5.60;;;1.90;;
31746;SDS011;18319;48.974;8.462;2022-10-31T04:34:40;3.60;;;2.08;;
31746;SDS011;18319;48.974;8.462;2022-10-31T04:37:27;2.75;;;1.88;;
31746;SDS011;18319;48.974;8.462;2022-10-31T04:39:59;8.77;;;2.78;;
31746;SDS011;18319;48.974;8.462;2022-10-31T04:42:28;5.63;;;2.55;;
31746;SDS011;18319;48.974;8.462;2022-10-31T04:44:55;4.07;;;2.10;;
31746;SDS011;18319;48.974;8.462;2022-10-31T04:47:22;4.82;;;2.40;;
31746;SDS011;18319;48.974;8.462;2022-10-31T04:49:49;4.15;;;1.98;;
31746;SDS011;18319;48.974;8.462;2022-10-31T04:52:16;4.05;;;2.65;;
31746;SDS011;18319;48.974;8.462;2022-10-31T04:54:44;4.70;;;1.80;;
31746;SDS011;18319;48.974;8.462;2022-10-31T04:57:11;6.68;;;1.98;;
31746;SDS011;18319;48.974;8.462;2022-10-31T04:59:38;7.47;;;2.58;;
31746;SDS011;18319;48.974;8.462;2022-10-31T05:02:05;4.10;;;2.03;;
31746;SDS011;18319;48.974;8.462;2022-10-31T05:04:32;6.60;;;2.08;;
31746;SDS011;18319;48.974;8.462;2022-10-31T05:06:59;3.17;;;2.17;;
31746;SDS011;18319;48.974;8.462;2022-10-31T05:09:26;4.97;;;2.60;;
31746;SDS011;18319;48.974;8.462;2022-10-31T05:11:54;4.32;;;2.42;;
31746;SDS011;18319;48.974;8.462;2022-10-31T05:14:21;6.55;;;2.20;;
31746;SDS011;18319;48.974;8.462;2022-10-31T05:16:48;3.00;;;2.08;;
31746;SDS011;18319;48.974;8.462;2022-10-31T05:19:15;3.78;;;2.63;;
31746;SDS011;18319;48.974;8.462;2022-10-31T05:21:42;5.45;;;2.30;;
31746;SDS011;18319;48.974;8.462;2022-10-31T05:24:09;2.63;;;2.42;;
31746;SDS011;18319;48.974;8.462;2022-10-31T05:26:36;5.40;;;2.28;;
31746;SDS011;18319;48.974;8.462;2022-10-31T05:29:04;4.70;;;2.53;;
31746;SDS011;18319;48.974;8.462;2022-10-31T05:31:31;5.75;;;2.60;;
31746;SDS011;18319;48.974;8.462;2022-10-31T05:33:58;4.05;;;2.40;;
31746;SDS011;18319;48.974;8.462;2022-10-31T05:36:25;4.43;;;2.47;;
31746;SDS011;18319;48.974;8.462;2022-10-31T05:38:53;2.47;;;2.15;;
31746;SDS011;18319;48.974;8.462;2022-10-31T05:41:20;2.13;;;1.98;;
31746;SDS011;18319;48.974;8.462;2022-10-31T05:43:46;2.88;;;2.08;;
31746;SDS011;18319;48.974;8.462;2022-10-31T05:46:14;3.60;;;2.08;;
31746;SDS011;18319;48.974;8.462;2022-10-31T05:48:41;4.80;;;2.05;;
31746;SDS011;18319;48.974;8.462;2022-10-31T05:51:08;5.47;;;2.00;;
31746;SDS011;18319;48.974;8.462;2022-10-31T05:53:35;4.25;;;2.33;;
31746;SDS011;18319;48.974;8.462;2022-10-31T05:59:39;5.38;;;2.67;;
31746;SDS011;18319;48.974;8.462;2022-10-31T06:02:07;3.55;;;2.08;;
31746;SDS011;18319;48.974;8.462;2022-10-31T06:04:34;5.53;;;2.22;;
31746;SDS011;18319;48.974;8.462;2022-10-31T06:07:01;4.43;;;2.35;;
31746;SDS011;18319;48.974;8.462;2022-10-31T06:09:28;2.92;;;2.28;;
31746;SDS011;18319;48.974;8.462;2022-10-31T06:11:55;4.18;;;2.58;;
31746;SDS011;18319;48.974;8.462;2022-10-31T06:14:22;5.28;;;2.60;;
31746;SDS011;18319;48.974;8.462;2022-10-31T06:16:49;3.50;;;2.25;;
31746;SDS011;18319;48.974;8.462;2022-10-31T06:19:17;2.80;;;2.08;;
31746;SDS011;18319;48.974;8.462;2022-10-31T06:21:44;3.90;;;2.15;;
31746;SDS011;18319;48.974;8.462;2022-10-31T06:24:11;9.27;;;2.65;;
31746;SDS011;18319;48.974;8.462;2022-10-31T06:26:38;2.95;;;2.30;;
31746;SDS011;18319;48.974;8.462;2022-10-31T06:29:05;3.28;;;2.00;;
31746;SDS011;18319;48.974;8.462;2022-10-31T06:31:32;4.72;;;2.08;;
31746;SDS011;18319;48.974;8.462;2022-10-31T06:33:58;6.57;;;3.10;;
31746;SDS011;18319;48.974;8.462;2022-10-31T06:36:26;4.78;;;2.53;;
31746;SDS011;18319;48.974;8.462;2022-10-31T06:38:53;2.65;;;1.83;;
31746;SDS011;18319;48.974;8.462;2022-10-31T06:41:20;2.30;;;2.17;;
31746;SDS011;18319;48.974;8.462;2022-10-31T06:43:47;6.65;;;2.20;;
31746;SDS011;18319;48.974;8.462;2022-10-31T06:46:14;2.72;;;2.15;;
31746;SDS011;18319;48.974;8.462;2022-10-31T06:48:41;4.93;;;2.22;;
31746;SDS011;18319;48.974;8.462;2022-10-31T06:51:08;3.05;;;2.70;;
31746;SDS011;18319;48.974;8.462;2022-10-31T06:53:36;5.40;;;2.08;;
31746;SDS011;18319;48.974;8.462;2022-10-31T06:56:03;3.20;;;2.25;;
31746;SDS011;18319;48.974;8.462;2022-10-31T06:58:30;4.05;;;2.50;;
31746;SDS011;18319;48.974;8.462;2022-10-31T07:00:58;4.45;;;1.75;;
31746;SDS011;18319;48.974;8.462;2022-10-31T07:03:25;6.85;;;2.08;;
31746;SDS011;18319;48.974;8.462;2022-10-31T07:05:54;6.22;;;2.55;;
31746;SDS011;18319;48.974;8.462;2022-10-31T07:08:21;3.53;;;1.98;;
31746;SDS011;18319;48.974;8.462;2022-10-31T07:10:52;4.82;;;2.47;;
31746;SDS011;18319;48.974;8.462;2022-10-31T07:13:19;4.68;;;1.95;;
31746;SDS011;18319;48.974;8.462;2022-10-31T07:15:49;5.85;;;2.58;;
31746;SDS011;18319;48.974;8.462;2022-10-31T07:18:16;4.60;;;1.95;;
31746;SDS011;18319;48.974;8.462;2022-10-31T07:20:43;3.88;;;2.20;;
31746;SDS011;18319;48.974;8.462;2022-10-31T07:23:10;7.85;;;2.30;;
31746;SDS011;18319;48.974;8.462;2022-10-31T07:25:37;1.90;;;1.65;;
31746;SDS011;18319;48.974;8.462;2022-10-31T07:28:06;3.03;;;2.05;;
31746;SDS011;18319;48.974;8.462;2022-10-31T07:30:33;4.38;;;2.50;;
31746;SDS011;18319;48.974;8.462;2022-10-31T07:33:00;3.97;;;2.30;;
31746;SDS011;18319;48.974;8.462;2022-10-31T07:35:28;3.42;;;2.33;;
31746;SDS011;18319;48.974;8.462;2022-10-31T07:37:55;3.92;;;2.28;;
31746;SDS011;18319;48.974;8.462;2022-10-31T07:40:23;6.75;;;2.67;;
31746;SDS011;18319;48.974;8.462;2022-10-31T07:42:50;3.47;;;2.03;;
31746;SDS011;18319;48.974;8.462;2022-10-31T07:45:20;3.28;;;2.50;;
31746;SDS011;18319;48.974;8.462;2022-10-31T07:47:47;5.53;;;2.30;;
31746;SDS011;18319;48.974;8.462;2022-10-31T07:50:15;6.93;;;2.65;;
31746;SDS011;18319;48.974;8.462;2022-10-31T07:52:43;3.65;;;2.17;;
31746;SDS011;18319;48.974;8.462;2022-10-31T07:55:10;8.52;;;2.40;;
31746;SDS011;18319;48.974;8.462;2022-10-31T07:57:37;5.63;;;2.58;;
31746;SDS011;18319;48.974;8.462;2022-10-31T08:00:04;6.15;;;2.60;;
31746;SDS011;18319;48.974;8.462;2022-10-31T08:02:34;4.97;;;2.50;;
31746;SDS011;18319;48.974;8.462;2022-10-31T08:05:01;4.22;;;2.58;;
31746;SDS011;18319;48.974;8.462;2022-10-31T08:07:28;2.50;;;2.25;;
31746;SDS011;18319;48.974;8.462;2022-10-31T08:09:55;5.63;;;2.72;;
31746;SDS011;18319;48.974;8.462;2022-10-31T08:12:22;4.88;;;2.58;;
31746;SDS011;18319;48.974;8.462;2022-10-31T08:14:49;7.00;;;2.58;;
31746;SDS011;18319;48.974;8.462;2022-10-31T08:17:16;5.55;;;2.22;;
31746;SDS011;18319;48.974;8.462;2022-10-31T08:19:44;5.80;;;2.03;;
31746;SDS011;18319;48.974;8.462;2022-10-31T08:22:10;8.20;;;2.55;;
31746;SDS011;18319;48.974;8.462;2022-10-31T08:24:37;3.88;;;2.50;;
31746;SDS011;18319;48.974;8.462;2022-10-31T08:27:04;5.38;;;2.42;;
31746;SDS011;18319;48.974;8.462;2022-10-31T08:29:31;4.22;;;2.22;;
31746;SDS011;18319;48.974;8.462;2022-10-31T08:31:58;4.20;;;2.03;;
31746;SDS011;18319;48.974;8.462;2022-10-31T08:34:25;4.30;;;2.20;;
31746;SDS011;18319;48.974;8.462;2022-10-31T08:36:53;6.55;;;2.55;;
31746;SDS011;18319;48.974;8.462;2022-10-31T08:39:20;2.28;;;2.15;;
31746;SDS011;18319;48.974;8.462;2022-10-31T08:41:46;4.15;;;2.50;;
31746;SDS011;18319;48.974;8.462;2022-10-31T08:44:13;2.75;;;2.15;;
31746;SDS011;18319;48.974;8.462;2022-10-31T08:46:40;2.35;;;1.88;;
31746;SDS011;18319;48.974;8.462;2022-10-31T08:49:07;7.88;;;2.78;;
31746;SDS011;18319;48.974;8.462;2022-10-31T08:51:34;9.82;;;3.20;;
31746;SDS011;18319;48.974;8.462;2022-10-31T08:54:02;5.45;;;2.95;;
31746;SDS011;18319;48.974;8.462;2022-10-31T08:56:29;5.82;;;3.08;;
31746;SDS011;18319;48.974;8.462;2022-10-31T08:58:56;4.00;;;2.83;;
31746;SDS011;18319;48.974;8.462;2022-10-31T09:01:23;5.10;;;2.70;;
31746;SDS011;18319;48.974;8.462;2022-10-31T09:03:50;5.97;;;3.10;;
31746;SDS011;18319;48.974;8.462;2022-10-31T09:06:16;5.45;;;2.90;;
31746;SDS011;18319;48.974;8.462;2022-10-31T09:08:43;4.07;;;2.90;;
31746;SDS011;18319;48.974;8.462;2022-10-31T09:11:14;5.10;;;3.35;;
31746;SDS011;18319;48.974;8.462;2022-10-31T09:13:45;6.75;;;3.30;;
31746;SDS011;18319;48.974;8.462;2022-10-31T09:16:12;4.60;;;2.40;;
31746;SDS011;18319;48.974;8.462;2022-10-31T09:18:38;8.30;;;2.85;;
31746;SDS011;18319;48.974;8.462;2022-10-31T09:21:05;3.80;;;3.50;;
31746;SDS011;18319;48.974;8.462;2022-10-31T09:23:33;4.55;;;2.92;;
31746;SDS011;18319;48.974;8.462;2022-10-31T09:26:00;4.68;;;3.45;;
31746;SDS011;18319;48.974;8.462;2022-10-31T09:28:30;4.47;;;3.90;;
31746;SDS011;18319;48.974;8.462;2022-10-31T09:30:57;6.25;;;2.60;;
31746;SDS011;18319;48.974;8.462;2022-10-31T09:33:24;4.55;;;2.70;;
31746;SDS011;18319;48.974;8.462;2022-10-31T09:35:51;5.30;;;3.10;;
31746;SDS011;18319;48.974;8.462;2022-10-31T09:38:18;3.83;;;2.80;;
31746;SDS011;18319;48.974;8.462;2022-10-31T09:40:47;4.80;;;2.90;;
31746;SDS011;18319;48.974;8.462;2022-10-31T09:43:20;3.95;;;2.75;;
31746;SDS011;18319;48.974;8.462;2022-10-31T09:45:58;4.78;;;2.70;;
31746;SDS011;18319;48.974;8.462;2022-10-31T09:48:33;3.92;;;2.85;;
31746;SDS011;18319;48.974;8.462;2022-10-31T09:51:12;3.70;;;2.92;;
31746;SDS011;18319;48.974;8.462;2022-10-31T09:53:43;6.68;;;3.53;;
31746;SDS011;18319;48.974;8.462;2022-10-31T09:56:15;3.90;;;3.00;;
31746;SDS011;18319;48.974;8.462;2022-10-31T09:58:44;6.53;;;3.00;;
31746;SDS011;18319;48.974;8.462;2022-10-31T10:01:20;8.13;;;2.75;;
31746;SDS011;18319;48.974;8.462;2022-10-31T10:03:55;10.25;;;3.17;;
31746;SDS011;18319;48.974;8.462;2022-10-31T10:06:26;6.18;;;3.67;;
31746;SDS011;18319;48.974;8.462;2022-10-31T10:08:55;10.85;;;3.40;;
31746;SDS011;18319;48.974;8.462;2022-10-31T10:11:28;5.38;;;3.60;;
31746;SDS011;18319;48.974;8.462;2022-10-31T10:14:11;5.47;;;3.17;;
31746;SDS011;18319;48.974;8.462;2022-10-31T10:16:46;14.00;;;3.25;;
31746;SDS011;18319;48.974;8.462;2022-10-31T10:19:27;4.18;;;2.67;;
31746;SDS011;18319;48.974;8.462;2022-10-31T10:22:06;4.82;;;3.15;;
31746;SDS011;18319;48.974;8.462;2022-10-31T10:24:43;6.53;;;3.30;;
31746;SDS011;18319;48.974;8.462;2022-10-31T10:27:22;4.60;;;3.40;;
31746;SDS011;18319;48.974;8.462;2022-10-31T10:29:57;7.30;;;3.30;;
31746;SDS011;18319;48.974;8.462;2022-10-31T10:32:30;5.47;;;2.85;;
31746;SDS011;18319;48.974;8.462;2022-10-31T10:35:04;4.95;;;3.67;;
31746;SDS011;18319;48.974;8.462;2022-10-31T10:37:41;5.97;;;4.50;;
31746;SDS011;18319;48.974;8.462;2022-10-31T10:40:12;4.75;;;3.13;;
31746;SDS011;18319;48.974;8.462;2022-10-31T10:42:43;3.72;;;3.08;;
31746;SDS011;18319;48.974;8.462;2022-10-31T10:45:32;7.07;;;3.83;;
31746;SDS011;18319;48.974;8.462;2022-10-31T10:48:20;3.72;;;3.22;;
31746;SDS011;18319;48.974;8.462;2022-10-31T10:50:53;6.47;;;3.20;;
31746;SDS011;18319;48.974;8.462;2022-10-31T10:53:25;4.97;;;4.63;;
31746;SDS011;18319;48.974;8.462;2022-10-31T10:56:15;6.97;;;3.17;;
31746;SDS011;18319;48.974;8.462;2022-10-31T10:58:45;6.07;;;3.30;;
31746;SDS011;18319;48.974;8.462;2022-10-31T11:01:13;7.68;;;3.42;;
31746;SDS011;18319;48.974;8.462;2022-10-31T11:03:42;6.32;;;3.53;;
31746;SDS011;18319;48.974;8.462;2022-10-31T11:06:18;6.22;;;3.80;;
31746;SDS011;18319;48.974;8.462;2022-10-31T11:08:50;5.03;;;3.38;;
31746;SDS011;18319;48.974;8.462;2022-10-31T11:11:22;5.63;;;3.95;;
31746;SDS011;18319;48.974;8.462;2022-10-31T11:13:51;9.57;;;3.70;;
31746;SDS011;18319;48.974;8.462;2022-10-31T11:16:28;4.93;;;4.05;;
31746;SDS011;18319;48.974;8.462;2022-10-31T11:19:06;4.88;;;3.20;;
31746;SDS011;18319;48.974;8.462;2022-10-31T11:21:35;7.05;;;4.40;;
31746;SDS011;18319;48.974;8.462;2022-10-31T11:24:03;6.78;;;3.63;;
31746;SDS011;18319;48.974;8.462;2022-10-31T11:26:38;6.80;;;4.40;;
31746;SDS011;18319;48.974;8.462;2022-10-31T11:29:10;6.95;;;3.83;;
31746;SDS011;18319;48.974;8.462;2022-10-31T11:31:41;4.82;;;4.43;;
31746;SDS011;18319;48.974;8.462;2022-10-31T11:34:22;8.15;;;4.18;;
31746;SDS011;18319;48.974;8.462;2022-10-31T11:36:54;7.85;;;4.40;;
31746;SDS011;18319;48.974;8.462;2022-10-31T11:39:27;4.63;;;4.22;;
31746;SDS011;18319;48.974;8.462;2022-10-31T11:41:54;5.35;;;3.75;;
31746;SDS011;18319;48.974;8.462;2022-10-31T11:44:25;6.28;;;4.28;;
31746;SDS011;18319;48.974;8.462;2022-10-31T11:46:55;4.53;;;3.47;;
31746;SDS011;18319;48.974;8.462;2022-10-31T11:49:28;7.40;;;3.88;;
31746;SDS011;18319;48.974;8.462;2022-10-31T11:51:58;7.95;;;4.22;;
31746;SDS011;18319;48.974;8.462;2022-10-31T11:54:29;7.43;;;4.20;;
31746;SDS011;18319;48.974;8.462;2022-10-31T11:56:58;8.70;;;4.28;;
31746;SDS011;18319;48.974;8.462;2022-10-31T11:59:26;7.70;;;3.67;;
31746;SDS011;18319;48.974;8.462;2022-10-31T12:01:55;10.98;;;4.13;;
31746;SDS011;18319;48.974;8.462;2022-10-31T12:04:27;12.05;;;4.78;;
31746;SDS011;18319;48.974;8.462;2022-10-31T12:06:58;8.82;;;3.95;;
31746;SDS011;18319;48.974;8.462;2022-10-31T12:09:26;5.50;;;4.30;;
31746;SDS011;18319;48.974;8.462;2022-10-31T12:12:02;4.32;;;3.08;;
31746;SDS011;18319;48.974;8.462;2022-10-31T12:14:39;5.95;;;3.47;;
31746;SDS011;18319;48.974;8.462;2022-10-31T12:17:17;5.70;;;3.88;;
31746;SDS011;18319;48.974;8.462;2022-10-31T12:19:59;7.15;;;3.90;;
31746;SDS011;18319;48.974;8.462;2022-10-31T12:22:36;5.45;;;3.58;;
31746;SDS011;18319;48.974;8.462;2022-10-31T12:25:16;9.90;;;3.78;;
31746;SDS011;18319;48.974;8.462;2022-10-31T12:28:06;11.35;;;3.90;;
31746;SDS011;18319;48.974;8.462;2022-10-31T12:30:55;4.43;;;3.60;;
31746;SDS011;18319;48.974;8.462;2022-10-31T12:33:36;5.97;;;3.55;;
31746;SDS011;18319;48.974;8.462;2022-10-31T12:39:23;7.60;;;3.38;;
31746;SDS011;18319;48.974;8.462;2022-10-31T12:41:59;5.28;;;3.40;;
31746;SDS011;18319;48.974;8.462;2022-10-31T12:44:45;6.70;;;3.33;;
31746;SDS011;18319;48.974;8.462;2022-10-31T12:47:27;5.65;;;3.55;;
31746;SDS011;18319;48.974;8.462;2022-10-31T12:50:16;5.47;;;3.30;;
31746;SDS011;18319;48.974;8.462;2022-10-31T12:52:59;6.68;;;3.88;;
31746;SDS011;18319;48.974;8.462;2022-10-31T12:55:40;9.77;;;3.92;;
31746;SDS011;18319;48.974;8.462;2022-10-31T12:58:15;7.05;;;3.75;;
31746;SDS011;18319;48.974;8.462;2022-10-31T13:00:48;5.43;;;3.38;;
31746;SDS011;18319;48.974;8.462;2022-10-31T13:03:22;6.18;;;3.90;;
31746;SDS011;18319;48.974;8.462;2022-10-31T13:05:54;5.63;;;3.55;;
31746;SDS011;18319;48.974;8.462;2022-10-31T13:08:27;4.97;;;3.25;;
31746;SDS011;18319;48.974;8.462;2022-10-31T13:10:59;4.03;;;3.63;;
31746;SDS011;18319;48.974;8.462;2022-10-31T13:13:33;7.55;;;4.22;;
31746;SDS011;18319;48.974;8.462;2022-10-31T13:16:04;6.03;;;3.15;;
31746;SDS011;18319;48.974;8.462;2022-10-31T13:18:38;7.05;;;2.95;;
31746;SDS011;18319;48.974;8.462;2022-10-31T13:21:10;5.18;;;3.63;;
31746;SDS011;18319;48.974;8.462;2022-10-31T13:23:44;4.65;;;3.25;;
31746;SDS011;18319;48.974;8.462;2022-10-31T13:26:15;6.25;;;3.30;;
31746;SDS011;18319;48.974;8.462;2022-10-31T13:28:48;4.35;;;3.70;;
31746;SDS011;18319;48.974;8.462;2022-10-31T13:31:20;8.68;;;3.83;;
31746;SDS011;18319;48.974;8.462;2022-10-31T13:33:48;5.20;;;3.13;;
31746;SDS011;18319;48.974;8.462;2022-10-31T13:36:20;5.78;;;3.85;;
31746;SDS011;18319;48.974;8.462;2022-10-31T13:38:54;5.13;;;3.15;;
31746;SDS011;18319;48.974;8.462;2022-10-31T13:41:28;7.30;;;3.22;;
31746;SDS011;18319;48.974;8.462;2022-10-31T13:44:02;5.05;;;3.38;;
31746;SDS011;18319;48.974;8.462;2022-10-31T13:46:37;4.40;;;3.08;;
31746;SDS011;18319;48.974;8.462;2022-10-31T13:49:21;10.57;;;3.22;;
31746;SDS011;18319;48.974;8.462;2022-10-31T13:51:51;7.13;;;3.67;;
31746;SDS011;18319;48.974;8.462;2022-10-31T13:54:23;4.93;;;3.53;;
31746;SDS011;18319;48.974;8.462;2022-10-31T13:56:58;8.25;;;4.13;;
31746;SDS011;18319;48.974;8.462;2022-10-31T13:59:25;5.38;;;2.85;;
31746;SDS011;18319;48.974;8.462;2022-10-31T14:01:54;4.47;;;3.70;;
31746;SDS011;18319;48.974;8.462;2022-10-31T14:04:23;4.75;;;3.70;;
31746;SDS011;18319;48.974;8.462;2022-10-31T14:06:54;5.68;;;3.67;;
31746;SDS011;18319;48.974;8.462;2022-10-31T14:09:29;4.55;;;3.10;;
31746;SDS011;18319;48.974;8.462;2022-10-31T14:12:01;4.82;;;3.22;;
31746;SDS011;18319;48.974;8.462;2022-10-31T14:14:32;8.88;;;3.70;;
31746;SDS011;18319;48.974;8.462;2022-10-31T14:17:05;3.83;;;3.15;;
31746;SDS011;18319;48.974;8.462;2022-10-31T14:19:55;4.13;;;3.22;;
31746;SDS011;18319;48.974;8.462;2022-10-31T14:22:30;3.25;;;2.60;;
31746;SDS011;18319;48.974;8.462;2022-10-31T14:24:58;10.77;;;4.00;;
31746;SDS011;18319;48.974;8.462;2022-10-31T14:27:33;6.35;;;3.85;;
31746;SDS011;18319;48.974;8.462;2022-10-31T14:30:13;3.70;;;3.40;;
31746;SDS011;18319;48.974;8.462;2022-10-31T14:32:42;6.45;;;3.75;;
31746;SDS011;18319;48.974;8.462;2022-10-31T14:35:13;7.65;;;4.32;;
31746;SDS011;18319;48.974;8.462;2022-10-31T14:37:48;5.75;;;3.97;;
31746;SDS011;18319;48.974;8.462;2022-10-31T14:40:39;8.55;;;4.00;;
31746;SDS011;18319;48.974;8.462;2022-10-31T14:43:21;7.15;;;5.10;;
31746;SDS011;18319;48.974;8.462;2022-10-31T14:46:04;4.85;;;3.80;;
31746;SDS011;18319;48.974;8.462;2022-10-31T14:51:40;8.10;;;3.67;;
31746;SDS011;18319;48.974;8.462;2022-10-31T14:54:11;7.05;;;3.88;;
31746;SDS011;18319;48.974;8.462;2022-10-31T14:56:46;5.85;;;3.35;;
31746;SDS011;18319;48.974;8.462;2022-10-31T14:59:18;7.03;;;4.20;;
31746;SDS011;18319;48.974;8.462;2022-10-31T15:01:51;3.58;;;3.25;;
31746;SDS011;18319;48.974;8.462;2022-10-31T15:04:23;7.38;;;3.78;;
31746;SDS011;18319;48.974;8.462;2022-10-31T15:06:57;7.00;;;3.60;;
31746;SDS011;18319;48.974;8.462;2022-10-31T15:09:28;7.07;;;3.95;;
31746;SDS011;18319;48.974;8.462;2022-10-31T15:11:59;7.78;;;3.78;;
31746;SDS011;18319;48.974;8.462;2022-10-31T15:14:27;10.30;;;3.63;;
31746;SDS011;18319;48.974;8.462;2022-10-31T15:16:55;4.90;;;3.53;;
31746;SDS011;18319;48.974;8.462;2022-10-31T15:19:24;6.80;;;3.20;;